sensor_id;sensor_type;location;lat;lon;timestamp;P1;durP1;ratioP1;P2;durP2;ratioP2
58756;SDS011;44527;47.460;19.016;2022-11-11T00:02:20;28.38;;;11.12;;
58756;SDS011;44527;47.460;19.016;2022-11-11T00:05:41;24.15;;;9.80;;
58756;SDS011;44527;47.460;19.016;2022-11-11T00:09:02;23.10;;;11.00;;
58756;SDS011;44527;47.460;19.016;2022-11-11T00:12:23;24.37;;;10.48;;
58756;SDS011;44527;47.460;19.016;2022-11-11T00:15:46;22.95;;;9.70;;
58756;SDS011;44527;47.460;19.016;2022-11-11T00:19:09;22.23;;;9.43;;
58756;SDS011;44527;47.460;19.016;2022-11-11T00:26:28;22.83;;;10.20;;
58756;SDS011;44527;47.460;19.016;2022-11-11T00:30:04;22.67;;;10.00;;
58756;SDS011;44527;47.460;19.016;2022-11-11T00:33:26;22.73;;;9.32;;
58756;SDS011;44527;47.460;19.016;2022-11-11T00:36:48;22.15;;;9.75;;
58756;SDS011;44527;47.460;19.016;2022-11-11T00:40:09;17.05;;;9.40;;
58756;SDS011;44527;47.460;19.016;2022-11-11T00:43:31;19.80;;;8.68;;
58756;SDS011;44527;47.460;19.016;2022-11-11T00:46:52;21.02;;;9.60;;
58756;SDS011;44527;47.460;19.016;2022-11-11T00:50:31;23.30;;;9.43;;
58756;SDS011;44527;47.460;19.016;2022-11-11T00:54:11;19.45;;;9.50;;
58756;SDS011;44527;47.460;19.016;2022-11-11T00:57:32;16.95;;;8.77;;
58756;SDS011;44527;47.460;19.016;2022-11-11T01:00:53;22.85;;;9.43;;
58756;SDS011;44527;47.460;19.016;2022-11-11T01:04:14;23.85;;;10.07;;
58756;SDS011;44527;47.460;19.016;2022-11-11T01:07:35;17.60;;;9.50;;
58756;SDS011;44527;47.460;19.016;2022-11-11T01:10:56;19.95;;;8.98;;
58756;SDS011;44527;47.460;19.016;2022-11-11T01:14:17;22.60;;;9.57;;
58756;SDS011;44527;47.460;19.016;2022-11-11T01:17:38;20.62;;;9.00;;
58756;SDS011;44527;47.460;19.016;2022-11-11T01:21:00;25.35;;;9.73;;
58756;SDS011;44527;47.460;19.016;2022-11-11T01:24:28;21.15;;;9.02;;
58756;SDS011;44527;47.460;19.016;2022-11-11T01:27:50;16.80;;;8.48;;
58756;SDS011;44527;47.460;19.016;2022-11-11T01:31:12;18.35;;;8.85;;
58756;SDS011;44527;47.460;19.016;2022-11-11T01:34:34;23.45;;;9.82;;
58756;SDS011;44527;47.460;19.016;2022-11-11T01:37:55;25.77;;;8.98;;
58756;SDS011;44527;47.460;19.016;2022-11-11T01:41:18;19.98;;;9.35;;
58756;SDS011;44527;47.460;19.016;2022-11-11T01:44:54;23.60;;;10.20;;
58756;SDS011;44527;47.460;19.016;2022-11-11T01:48:21;19.87;;;9.43;;
58756;SDS011;44527;47.460;19.016;2022-11-11T01:55:29;23.75;;;9.65;;
58756;SDS011;44527;47.460;19.016;2022-11-11T01:58:52;21.95;;;10.07;;
58756;SDS011;44527;47.460;19.016;2022-11-11T02:02:18;23.08;;;9.57;;
58756;SDS011;44527;47.460;19.016;2022-11-11T02:05:43;19.58;;;8.80;;
58756;SDS011;44527;47.460;19.016;2022-11-11T02:09:07;19.77;;;9.50;;
58756;SDS011;44527;47.460;19.016;2022-11-11T02:12:28;20.17;;;8.57;;
58756;SDS011;44527;47.460;19.016;2022-11-11T02:16:08;26.67;;;9.52;;
58756;SDS011;44527;47.460;19.016;2022-11-11T02:19:48;22.35;;;9.35;;
58756;SDS011;44527;47.460;19.016;2022-11-11T02:23:14;21.40;;;8.30;;
58756;SDS011;44527;47.460;19.016;2022-11-11T02:26:42;18.50;;;8.13;;
58756;SDS011;44527;47.460;19.016;2022-11-11T02:30:05;25.60;;;8.65;;
58756;SDS011;44527;47.460;19.016;2022-11-11T02:33:27;21.95;;;10.27;;
58756;SDS011;44527;47.460;19.016;2022-11-11T02:36:48;17.98;;;8.77;;
58756;SDS011;44527;47.460;19.016;2022-11-11T02:40:11;17.92;;;8.63;;
58756;SDS011;44527;47.460;19.016;2022-11-11T02:43:36;19.67;;;9.73;;
58756;SDS011;44527;47.460;19.016;2022-11-11T02:46:57;18.02;;;8.85;;
58756;SDS011;44527;47.460;19.016;2022-11-11T02:50:18;26.90;;;9.98;;
58756;SDS011;44527;47.460;19.016;2022-11-11T02:53:39;19.52;;;9.27;;
58756;SDS011;44527;47.460;19.016;2022-11-11T02:57:00;19.33;;;9.05;;
58756;SDS011;44527;47.460;19.016;2022-11-11T03:00:27;18.33;;;9.02;;
58756;SDS011;44527;47.460;19.016;2022-11-11T03:03:48;27.48;;;10.60;;
58756;SDS011;44527;47.460;19.016;2022-11-11T03:07:09;22.45;;;10.55;;
58756;SDS011;44527;47.460;19.016;2022-11-11T03:10:30;20.45;;;10.50;;
58756;SDS011;44527;47.460;19.016;2022-11-11T03:13:58;18.45;;;9.15;;
58756;SDS011;44527;47.460;19.016;2022-11-11T03:17:20;18.48;;;9.10;;
58756;SDS011;44527;47.460;19.016;2022-11-11T03:20:59;20.98;;;9.32;;
58756;SDS011;44527;47.460;19.016;2022-11-11T03:24:46;19.25;;;9.23;;
58756;SDS011;44527;47.460;19.016;2022-11-11T03:28:26;26.05;;;10.48;;
58756;SDS011;44527;47.460;19.016;2022-11-11T03:31:47;20.40;;;10.63;;
58756;SDS011;44527;47.460;19.016;2022-11-11T03:35:08;21.87;;;9.40;;
58756;SDS011;44527;47.460;19.016;2022-11-11T03:38:29;18.55;;;9.15;;
58756;SDS011;44527;47.460;19.016;2022-11-11T03:41:49;19.10;;;9.55;;
58756;SDS011;44527;47.460;19.016;2022-11-11T03:45:10;21.75;;;9.93;;
58756;SDS011;44527;47.460;19.016;2022-11-11T03:48:32;23.52;;;11.02;;
58756;SDS011;44527;47.460;19.016;2022-11-11T03:51:54;25.23;;;10.98;;
58756;SDS011;44527;47.460;19.016;2022-11-11T03:55:15;20.70;;;9.93;;
58756;SDS011;44527;47.460;19.016;2022-11-11T03:58:36;23.50;;;10.38;;
58756;SDS011;44527;47.460;19.016;2022-11-11T04:01:57;24.95;;;10.77;;
58756;SDS011;44527;47.460;19.016;2022-11-11T04:05:36;19.12;;;8.93;;
58756;SDS011;44527;47.460;19.016;2022-11-11T04:09:16;23.15;;;10.38;;
58756;SDS011;44527;47.460;19.016;2022-11-11T04:12:56;24.70;;;10.33;;
58756;SDS011;44527;47.460;19.016;2022-11-11T04:16:36;22.40;;;11.07;;
58756;SDS011;44527;47.460;19.016;2022-11-11T04:19:57;26.42;;;11.48;;
58756;SDS011;44527;47.460;19.016;2022-11-11T04:23:37;25.25;;;10.45;;
58756;SDS011;44527;47.460;19.016;2022-11-11T04:26:59;24.45;;;10.65;;
58756;SDS011;44527;47.460;19.016;2022-11-11T04:30:22;29.02;;;12.27;;
58756;SDS011;44527;47.460;19.016;2022-11-11T04:33:43;24.10;;;10.88;;
58756;SDS011;44527;47.460;19.016;2022-11-11T04:37:03;25.77;;;11.85;;
58756;SDS011;44527;47.460;19.016;2022-11-11T04:40:25;30.37;;;14.55;;
58756;SDS011;44527;47.460;19.016;2022-11-11T04:44:04;31.55;;;15.40;;
58756;SDS011;44527;47.460;19.016;2022-11-11T04:48:00;35.03;;;15.93;;
58756;SDS011;44527;47.460;19.016;2022-11-11T04:51:22;34.72;;;14.68;;
58756;SDS011;44527;47.460;19.016;2022-11-11T04:55:03;38.40;;;16.20;;
58756;SDS011;44527;47.460;19.016;2022-11-11T04:58:43;32.77;;;14.53;;
58756;SDS011;44527;47.460;19.016;2022-11-11T05:02:06;35.67;;;14.35;;
58756;SDS011;44527;47.460;19.016;2022-11-11T05:09:35;33.28;;;14.75;;
58756;SDS011;44527;47.460;19.016;2022-11-11T05:12:56;34.78;;;15.32;;
58756;SDS011;44527;47.460;19.016;2022-11-11T05:16:44;29.12;;;14.05;;
58756;SDS011;44527;47.460;19.016;2022-11-11T05:20:25;29.37;;;14.07;;
58756;SDS011;44527;47.460;19.016;2022-11-11T05:24:04;30.62;;;15.38;;
58756;SDS011;44527;47.460;19.016;2022-11-11T05:27:44;31.85;;;15.77;;
58756;SDS011;44527;47.460;19.016;2022-11-11T05:31:05;30.23;;;14.05;;
58756;SDS011;44527;47.460;19.016;2022-11-11T05:34:26;32.15;;;14.90;;
58756;SDS011;44527;47.460;19.016;2022-11-11T05:37:47;35.50;;;15.00;;
58756;SDS011;44527;47.460;19.016;2022-11-11T05:41:26;35.22;;;16.58;;
58756;SDS011;44527;47.460;19.016;2022-11-11T05:44:48;27.55;;;14.13;;
58756;SDS011;44527;47.460;19.016;2022-11-11T05:48:09;33.72;;;15.23;;
58756;SDS011;44527;47.460;19.016;2022-11-11T05:51:30;30.17;;;14.95;;
58756;SDS011;44527;47.460;19.016;2022-11-11T05:54:56;28.40;;;14.45;;
58756;SDS011;44527;47.460;19.016;2022-11-11T05:58:19;31.62;;;14.82;;
58756;SDS011;44527;47.460;19.016;2022-11-11T06:01:40;31.87;;;14.45;;
58756;SDS011;44527;47.460;19.016;2022-11-11T06:05:01;28.12;;;14.13;;
58756;SDS011;44527;47.460;19.016;2022-11-11T06:08:23;27.65;;;13.90;;
58756;SDS011;44527;47.460;19.016;2022-11-11T06:11:44;27.35;;;13.18;;
58756;SDS011;44527;47.460;19.016;2022-11-11T06:15:05;28.08;;;13.43;;
58756;SDS011;44527;47.460;19.016;2022-11-11T06:18:27;25.80;;;13.68;;
58756;SDS011;44527;47.460;19.016;2022-11-11T06:21:51;38.33;;;15.88;;
58756;SDS011;44527;47.460;19.016;2022-11-11T06:25:17;31.45;;;14.73;;
58756;SDS011;44527;47.460;19.016;2022-11-11T06:28:57;28.95;;;13.93;;
58756;SDS011;44527;47.460;19.016;2022-11-11T06:32:18;30.55;;;14.20;;
58756;SDS011;44527;47.460;19.016;2022-11-11T06:35:39;33.85;;;14.35;;
58756;SDS011;44527;47.460;19.016;2022-11-11T06:39:03;29.02;;;13.80;;
58756;SDS011;44527;47.460;19.016;2022-11-11T06:42:24;30.55;;;14.18;;
58756;SDS011;44527;47.460;19.016;2022-11-11T06:45:49;26.85;;;13.82;;
58756;SDS011;44527;47.460;19.016;2022-11-11T06:49:12;30.85;;;14.27;;
58756;SDS011;44527;47.460;19.016;2022-11-11T06:52:33;25.83;;;13.75;;
58756;SDS011;44527;47.460;19.016;2022-11-11T06:55:55;36.38;;;14.52;;
58756;SDS011;44527;47.460;19.016;2022-11-11T06:59:17;23.55;;;13.88;;
58756;SDS011;44527;47.460;19.016;2022-11-11T07:02:38;33.78;;;14.63;;
58756;SDS011;44527;47.460;19.016;2022-11-11T07:06:00;32.75;;;14.48;;
58756;SDS011;44527;47.460;19.016;2022-11-11T07:09:22;29.15;;;13.88;;
58756;SDS011;44527;47.460;19.016;2022-11-11T07:12:45;26.77;;;14.00;;
58756;SDS011;44527;47.460;19.016;2022-11-11T07:16:07;28.10;;;15.43;;
58756;SDS011;44527;47.460;19.016;2022-11-11T07:19:30;32.55;;;14.85;;
58756;SDS011;44527;47.460;19.016;2022-11-11T07:22:51;29.65;;;14.68;;
58756;SDS011;44527;47.460;19.016;2022-11-11T07:26:13;28.40;;;13.77;;
58756;SDS011;44527;47.460;19.016;2022-11-11T07:29:34;26.48;;;13.48;;
58756;SDS011;44527;47.460;19.016;2022-11-11T07:32:55;32.90;;;14.13;;
58756;SDS011;44527;47.460;19.016;2022-11-11T07:36:16;30.17;;;14.23;;
58756;SDS011;44527;47.460;19.016;2022-11-11T07:39:39;26.25;;;13.70;;
58756;SDS011;44527;47.460;19.016;2022-11-11T07:43:01;24.90;;;14.30;;
58756;SDS011;44527;47.460;19.016;2022-11-11T07:46:22;27.77;;;13.10;;
58756;SDS011;44527;47.460;19.016;2022-11-11T07:49:42;22.27;;;12.23;;
58756;SDS011;44527;47.460;19.016;2022-11-11T07:53:03;26.20;;;13.13;;
58756;SDS011;44527;47.460;19.016;2022-11-11T07:56:24;23.45;;;12.32;;
58756;SDS011;44527;47.460;19.016;2022-11-11T07:59:45;25.40;;;13.55;;
58756;SDS011;44527;47.460;19.016;2022-11-11T08:03:07;27.80;;;13.23;;
58756;SDS011;44527;47.460;19.016;2022-11-11T08:06:28;31.40;;;13.57;;
58756;SDS011;44527;47.460;19.016;2022-11-11T08:09:49;22.25;;;11.45;;
58756;SDS011;44527;47.460;19.016;2022-11-11T08:13:10;24.15;;;11.43;;
58756;SDS011;44527;47.460;19.016;2022-11-11T08:16:51;29.65;;;12.15;;
58756;SDS011;44527;47.460;19.016;2022-11-11T08:20:12;26.85;;;13.20;;
58756;SDS011;44527;47.460;19.016;2022-11-11T08:23:33;23.40;;;11.88;;
58756;SDS011;44527;47.460;19.016;2022-11-11T08:30:34;20.83;;;12.15;;
58756;SDS011;44527;47.460;19.016;2022-11-11T08:33:55;26.70;;;12.37;;
58756;SDS011;44527;47.460;19.016;2022-11-11T08:37:16;30.42;;;13.85;;
58756;SDS011;44527;47.460;19.016;2022-11-11T08:40:37;24.02;;;12.25;;
58756;SDS011;44527;47.460;19.016;2022-11-11T08:43:59;28.08;;;12.32;;
58756;SDS011;44527;47.460;19.016;2022-11-11T08:47:20;22.87;;;11.30;;
58756;SDS011;44527;47.460;19.016;2022-11-11T08:50:44;18.60;;;10.90;;
58756;SDS011;44527;47.460;19.016;2022-11-11T08:54:05;26.30;;;12.07;;
58756;SDS011;44527;47.460;19.016;2022-11-11T08:57:26;24.12;;;11.25;;
58756;SDS011;44527;47.460;19.016;2022-11-11T09:00:47;22.48;;;12.20;;
58756;SDS011;44527;47.460;19.016;2022-11-11T09:04:07;22.40;;;10.88;;
58756;SDS011;44527;47.460;19.016;2022-11-11T09:11:08;16.23;;;9.98;;
58756;SDS011;44527;47.460;19.016;2022-11-11T09:14:30;18.48;;;9.02;;
58756;SDS011;44527;47.460;19.016;2022-11-11T09:17:51;17.52;;;8.93;;
58756;SDS011;44527;47.460;19.016;2022-11-11T09:21:12;20.33;;;10.18;;
58756;SDS011;44527;47.460;19.016;2022-11-11T09:24:33;24.33;;;9.82;;
58756;SDS011;44527;47.460;19.016;2022-11-11T09:27:54;19.50;;;8.88;;
58756;SDS011;44527;47.460;19.016;2022-11-11T09:31:16;15.65;;;9.02;;
58756;SDS011;44527;47.460;19.016;2022-11-11T09:34:57;31.90;;;14.10;;
58756;SDS011;44527;47.460;19.016;2022-11-11T09:38:26;35.03;;;15.90;;
58756;SDS011;44527;47.460;19.016;2022-11-11T09:42:10;37.28;;;17.37;;
58756;SDS011;44527;47.460;19.016;2022-11-11T09:45:42;35.33;;;15.90;;
58756;SDS011;44527;47.460;19.016;2022-11-11T09:56:30;21.85;;;11.20;;
58756;SDS011;44527;47.460;19.016;2022-11-11T09:59:53;19.05;;;9.55;;
58756;SDS011;44527;47.460;19.016;2022-11-11T10:03:20;23.42;;;10.25;;
58756;SDS011;44527;47.460;19.016;2022-11-11T10:06:42;18.25;;;9.55;;
58756;SDS011;44527;47.460;19.016;2022-11-11T10:10:11;19.55;;;9.85;;
58756;SDS011;44527;47.460;19.016;2022-11-11T10:13:37;17.70;;;9.80;;
58756;SDS011;44527;47.460;19.016;2022-11-11T10:20:46;16.65;;;10.05;;
58756;SDS011;44527;47.460;19.016;2022-11-11T10:24:13;18.87;;;9.93;;
58756;SDS011;44527;47.460;19.016;2022-11-11T10:27:40;18.25;;;10.57;;
58756;SDS011;44527;47.460;19.016;2022-11-11T10:31:04;18.55;;;8.68;;
58756;SDS011;44527;47.460;19.016;2022-11-11T10:34:32;14.65;;;9.52;;
58756;SDS011;44527;47.460;19.016;2022-11-11T10:45:07;18.23;;;11.45;;
58756;SDS011;44527;47.460;19.016;2022-11-11T10:49:12;19.62;;;9.90;;
58756;SDS011;44527;47.460;19.016;2022-11-11T10:52:47;19.37;;;9.43;;
58756;SDS011;44527;47.460;19.016;2022-11-11T10:56:22;21.12;;;8.85;;
58756;SDS011;44527;47.460;19.016;2022-11-11T10:59:59;19.50;;;10.05;;
58756;SDS011;44527;47.460;19.016;2022-11-11T11:03:23;20.48;;;10.43;;
58756;SDS011;44527;47.460;19.016;2022-11-11T11:06:53;15.88;;;9.13;;
58756;SDS011;44527;47.460;19.016;2022-11-11T11:10:20;13.80;;;7.95;;
58756;SDS011;44527;47.460;19.016;2022-11-11T11:13:47;15.75;;;8.10;;
58756;SDS011;44527;47.460;19.016;2022-11-11T11:17:16;16.25;;;9.52;;
58756;SDS011;44527;47.460;19.016;2022-11-11T11:20:53;26.15;;;10.90;;
58756;SDS011;44527;47.460;19.016;2022-11-11T11:24:23;19.90;;;11.18;;
58756;SDS011;44527;47.460;19.016;2022-11-11T11:27:46;24.75;;;11.60;;
58756;SDS011;44527;47.460;19.016;2022-11-11T11:31:10;27.55;;;12.60;;
58756;SDS011;44527;47.460;19.016;2022-11-11T11:41:37;13.30;;;6.43;;
58756;SDS011;44527;47.460;19.016;2022-11-11T11:45:15;11.88;;;5.90;;
58756;SDS011;44527;47.460;19.016;2022-11-11T11:56:20;16.00;;;6.53;;
58756;SDS011;44527;47.460;19.016;2022-11-11T11:59:55;26.75;;;12.32;;
58756;SDS011;44527;47.460;19.016;2022-11-11T12:11:41;31.80;;;13.73;;
58756;SDS011;44527;47.460;19.016;2022-11-11T12:15:33;29.30;;;14.50;;
58756;SDS011;44527;47.460;19.016;2022-11-11T12:26:52;22.67;;;11.57;;
58756;SDS011;44527;47.460;19.016;2022-11-11T12:30:33;24.23;;;10.25;;
58756;SDS011;44527;47.460;19.016;2022-11-11T12:34:15;23.92;;;10.63;;
58756;SDS011;44527;47.460;19.016;2022-11-11T12:37:49;29.58;;;11.15;;
58756;SDS011;44527;47.460;19.016;2022-11-11T12:45:04;8.82;;;2.90;;
58756;SDS011;44527;47.460;19.016;2022-11-11T12:48:49;8.82;;;2.28;;
58756;SDS011;44527;47.460;19.016;2022-11-11T12:59:57;5.07;;;2.10;;
58756;SDS011;44527;47.460;19.016;2022-11-11T13:03:29;7.22;;;2.08;;
58756;SDS011;44527;47.460;19.016;2022-11-11T13:07:16;4.18;;;1.73;;
58756;SDS011;44527;47.460;19.016;2022-11-11T13:18:07;15.07;;;2.83;;
58756;SDS011;44527;47.460;19.016;2022-11-11T13:21:36;7.75;;;2.90;;
58756;SDS011;44527;47.460;19.016;2022-11-11T13:25:13;9.68;;;3.33;;
58756;SDS011;44527;47.460;19.016;2022-11-11T13:28:43;9.20;;;3.50;;
58756;SDS011;44527;47.460;19.016;2022-11-11T13:32:09;13.35;;;3.03;;
58756;SDS011;44527;47.460;19.016;2022-11-11T13:39:26;13.15;;;3.42;;
58756;SDS011;44527;47.460;19.016;2022-11-11T13:42:50;8.75;;;2.83;;
58756;SDS011;44527;47.460;19.016;2022-11-11T13:46:27;7.50;;;2.90;;
58756;SDS011;44527;47.460;19.016;2022-11-11T13:49:53;8.23;;;2.60;;
58756;SDS011;44527;47.460;19.016;2022-11-11T13:53:29;10.75;;;3.20;;
58756;SDS011;44527;47.460;19.016;2022-11-11T13:56:51;12.93;;;3.53;;
58756;SDS011;44527;47.460;19.016;2022-11-11T14:07:06;9.10;;;3.42;;
58756;SDS011;44527;47.460;19.016;2022-11-11T14:13:47;10.18;;;2.92;;
58756;SDS011;44527;47.460;19.016;2022-11-11T14:17:12;8.55;;;3.53;;
58756;SDS011;44527;47.460;19.016;2022-11-11T14:20:37;9.63;;;2.78;;
58756;SDS011;44527;47.460;19.016;2022-11-11T14:24:00;8.40;;;2.60;;
58756;SDS011;44527;47.460;19.016;2022-11-11T14:27:23;10.88;;;2.50;;
58756;SDS011;44527;47.460;19.016;2022-11-11T14:30:47;11.40;;;2.25;;
58756;SDS011;44527;47.460;19.016;2022-11-11T14:41:48;8.68;;;3.08;;
58756;SDS011;44527;47.460;19.016;2022-11-11T14:45:01;13.57;;;3.37;;
58756;SDS011;44527;47.460;19.016;2022-11-11T14:55:54;12.15;;;3.12;;
58756;SDS011;44527;47.460;19.016;2022-11-11T14:59:15;12.15;;;3.00;;
58756;SDS011;44527;47.460;19.016;2022-11-11T15:03:01;14.75;;;3.70;;
58756;SDS011;44527;47.460;19.016;2022-11-11T15:06:40;14.52;;;3.60;;
58756;SDS011;44527;47.460;19.016;2022-11-11T15:24:24;24.65;;;7.68;;
58756;SDS011;44527;47.460;19.016;2022-11-11T15:28:12;32.25;;;10.05;;
58756;SDS011;44527;47.460;19.016;2022-11-11T15:31:59;21.75;;;11.10;;
58756;SDS011;44527;47.460;19.016;2022-11-11T15:35:29;18.83;;;9.57;;
58756;SDS011;44527;47.460;19.016;2022-11-11T15:38:55;18.60;;;8.23;;
58756;SDS011;44527;47.460;19.016;2022-11-11T15:42:36;21.52;;;9.63;;
58756;SDS011;44527;47.460;19.016;2022-11-11T15:46:02;20.15;;;9.45;;
58756;SDS011;44527;47.460;19.016;2022-11-11T15:49:44;28.90;;;10.95;;
58756;SDS011;44527;47.460;19.016;2022-11-11T15:53:10;30.20;;;12.35;;
58756;SDS011;44527;47.460;19.016;2022-11-11T15:56:32;28.75;;;12.18;;
58756;SDS011;44527;47.460;19.016;2022-11-11T15:59:56;27.15;;;13.43;;
58756;SDS011;44527;47.460;19.016;2022-11-11T16:03:41;27.40;;;13.77;;
58756;SDS011;44527;47.460;19.016;2022-11-11T16:07:03;36.05;;;14.55;;
58756;SDS011;44527;47.460;19.016;2022-11-11T16:10:28;31.50;;;13.30;;
58756;SDS011;44527;47.460;19.016;2022-11-11T16:17:29;36.15;;;15.63;;
58756;SDS011;44527;47.460;19.016;2022-11-11T16:20:56;34.22;;;14.90;;
58756;SDS011;44527;47.460;19.016;2022-11-11T16:24:26;28.60;;;15.75;;
58756;SDS011;44527;47.460;19.016;2022-11-11T16:27:50;42.62;;;19.17;;
58756;SDS011;44527;47.460;19.016;2022-11-11T16:38:41;42.83;;;17.35;;
58756;SDS011;44527;47.460;19.016;2022-11-11T16:42:15;37.00;;;16.45;;
58756;SDS011;44527;47.460;19.016;2022-11-11T16:45:44;28.35;;;14.60;;
58756;SDS011;44527;47.460;19.016;2022-11-11T16:49:14;31.20;;;14.33;;
58756;SDS011;44527;47.460;19.016;2022-11-11T16:59:51;27.80;;;13.65;;
58756;SDS011;44527;47.460;19.016;2022-11-11T17:03:18;33.65;;;14.55;;
58756;SDS011;44527;47.460;19.016;2022-11-11T17:10:16;27.08;;;14.57;;
58756;SDS011;44527;47.460;19.016;2022-11-11T17:13:38;32.53;;;14.50;;
58756;SDS011;44527;47.460;19.016;2022-11-11T17:17:02;36.35;;;14.75;;
58756;SDS011;44527;47.460;19.016;2022-11-11T17:20:27;33.28;;;15.45;;
58756;SDS011;44527;47.460;19.016;2022-11-11T17:23:48;36.30;;;17.08;;
58756;SDS011;44527;47.460;19.016;2022-11-11T17:27:09;30.60;;;15.95;;
58756;SDS011;44527;47.460;19.016;2022-11-11T17:30:30;29.30;;;15.45;;
58756;SDS011;44527;47.460;19.016;2022-11-11T17:33:51;31.40;;;15.85;;
58756;SDS011;44527;47.460;19.016;2022-11-11T17:37:11;35.20;;;15.35;;
58756;SDS011;44527;47.460;19.016;2022-11-11T17:40:32;34.70;;;16.30;;
58756;SDS011;44527;47.460;19.016;2022-11-11T17:43:53;36.40;;;16.90;;
58756;SDS011;44527;47.460;19.016;2022-11-11T17:47:14;30.88;;;15.77;;
58756;SDS011;44527;47.460;19.016;2022-11-11T17:50:35;37.40;;;17.55;;
58756;SDS011;44527;47.460;19.016;2022-11-11T17:53:57;40.38;;;17.80;;
58756;SDS011;44527;47.460;19.016;2022-11-11T17:57:19;36.45;;;17.52;;
58756;SDS011;44527;47.460;19.016;2022-11-11T18:00:40;33.25;;;17.37;;
58756;SDS011;44527;47.460;19.016;2022-11-11T18:04:00;40.00;;;17.20;;
58756;SDS011;44527;47.460;19.016;2022-11-11T18:07:23;32.58;;;16.50;;
58756;SDS011;44527;47.460;19.016;2022-11-11T18:10:44;31.00;;;17.15;;
58756;SDS011;44527;47.460;19.016;2022-11-11T18:14:05;40.75;;;18.65;;
58756;SDS011;44527;47.460;19.016;2022-11-11T18:17:26;41.58;;;19.58;;
58756;SDS011;44527;47.460;19.016;2022-11-11T18:20:47;34.05;;;17.87;;
58756;SDS011;44527;47.460;19.016;2022-11-11T18:24:08;39.63;;;17.70;;
58756;SDS011;44527;47.460;19.016;2022-11-11T18:27:30;36.90;;;18.35;;
58756;SDS011;44527;47.460;19.016;2022-11-11T18:30:50;45.12;;;20.05;;
58756;SDS011;44527;47.460;19.016;2022-11-11T18:34:11;38.65;;;16.85;;
58756;SDS011;44527;47.460;19.016;2022-11-11T18:37:32;29.30;;;16.77;;
58756;SDS011;44527;47.460;19.016;2022-11-11T18:40:59;33.28;;;17.48;;
58756;SDS011;44527;47.460;19.016;2022-11-11T18:44:40;29.12;;;15.75;;
58756;SDS011;44527;47.460;19.016;2022-11-11T18:48:01;30.42;;;15.13;;
58756;SDS011;44527;47.460;19.016;2022-11-11T18:51:22;38.03;;;16.73;;
58756;SDS011;44527;47.460;19.016;2022-11-11T18:54:43;31.08;;;15.18;;
58756;SDS011;44527;47.460;19.016;2022-11-11T18:58:04;30.37;;;15.55;;
58756;SDS011;44527;47.460;19.016;2022-11-11T19:01:25;31.48;;;15.38;;
58756;SDS011;44527;47.460;19.016;2022-11-11T19:04:48;26.50;;;14.68;;
58756;SDS011;44527;47.460;19.016;2022-11-11T19:08:08;33.88;;;16.48;;
58756;SDS011;44527;47.460;19.016;2022-11-11T19:11:29;41.75;;;17.33;;
58756;SDS011;44527;47.460;19.016;2022-11-11T19:14:52;33.40;;;16.52;;
58756;SDS011;44527;47.460;19.016;2022-11-11T19:18:13;32.58;;;16.08;;
58756;SDS011;44527;47.460;19.016;2022-11-11T19:21:34;33.50;;;16.08;;
58756;SDS011;44527;47.460;19.016;2022-11-11T19:24:56;29.48;;;15.80;;
58756;SDS011;44527;47.460;19.016;2022-11-11T19:28:17;26.37;;;15.63;;
58756;SDS011;44527;47.460;19.016;2022-11-11T19:31:38;30.90;;;15.57;;
58756;SDS011;44527;47.460;19.016;2022-11-11T19:34:58;43.13;;;15.55;;
58756;SDS011;44527;47.460;19.016;2022-11-11T19:38:19;29.10;;;14.95;;
58756;SDS011;44527;47.460;19.016;2022-11-11T19:41:40;30.00;;;14.15;;
58756;SDS011;44527;47.460;19.016;2022-11-11T19:45:01;29.98;;;13.73;;
58756;SDS011;44527;47.460;19.016;2022-11-11T19:48:22;23.48;;;12.75;;
58756;SDS011;44527;47.460;19.016;2022-11-11T19:51:43;24.55;;;12.98;;
58756;SDS011;44527;47.460;19.016;2022-11-11T19:55:03;26.92;;;12.77;;
58756;SDS011;44527;47.460;19.016;2022-11-11T19:58:25;30.35;;;12.60;;
58756;SDS011;44527;47.460;19.016;2022-11-11T20:01:45;24.65;;;13.07;;
58756;SDS011;44527;47.460;19.016;2022-11-11T20:05:06;23.83;;;12.73;;
58756;SDS011;44527;47.460;19.016;2022-11-11T20:08:27;24.42;;;12.13;;
58756;SDS011;44527;47.460;19.016;2022-11-11T20:11:48;24.02;;;12.07;;
58756;SDS011;44527;47.460;19.016;2022-11-11T20:15:08;21.80;;;11.40;;
58756;SDS011;44527;47.460;19.016;2022-11-11T20:18:30;20.77;;;10.82;;
58756;SDS011;44527;47.460;19.016;2022-11-11T20:21:53;26.60;;;11.48;;
58756;SDS011;44527;47.460;19.016;2022-11-11T20:25:14;23.52;;;12.63;;
58756;SDS011;44527;47.460;19.016;2022-11-11T20:28:35;30.40;;;13.77;;
58756;SDS011;44527;47.460;19.016;2022-11-11T20:31:56;37.55;;;15.50;;
58756;SDS011;44527;47.460;19.016;2022-11-11T20:35:17;31.98;;;16.40;;
58756;SDS011;44527;47.460;19.016;2022-11-11T20:38:37;29.12;;;15.02;;
58756;SDS011;44527;47.460;19.016;2022-11-11T20:41:58;27.30;;;12.32;;
58756;SDS011;44527;47.460;19.016;2022-11-11T20:45:19;24.42;;;11.68;;
58756;SDS011;44527;47.460;19.016;2022-11-11T20:48:41;28.35;;;11.73;;
58756;SDS011;44527;47.460;19.016;2022-11-11T20:52:03;27.40;;;12.07;;
58756;SDS011;44527;47.460;19.016;2022-11-11T20:55:24;20.05;;;11.48;;
58756;SDS011;44527;47.460;19.016;2022-11-11T20:58:45;27.42;;;11.52;;
58756;SDS011;44527;47.460;19.016;2022-11-11T21:02:08;25.73;;;11.65;;
58756;SDS011;44527;47.460;19.016;2022-11-11T21:05:29;19.27;;;10.88;;
58756;SDS011;44527;47.460;19.016;2022-11-11T21:08:49;25.95;;;11.90;;
58756;SDS011;44527;47.460;19.016;2022-11-11T21:12:11;21.67;;;11.30;;
58756;SDS011;44527;47.460;19.016;2022-11-11T21:15:32;21.75;;;11.23;;
58756;SDS011;44527;47.460;19.016;2022-11-11T21:18:53;21.85;;;11.23;;
58756;SDS011;44527;47.460;19.016;2022-11-11T21:22:15;27.05;;;10.73;;
58756;SDS011;44527;47.460;19.016;2022-11-11T21:25:35;21.23;;;11.52;;
58756;SDS011;44527;47.460;19.016;2022-11-11T21:28:56;22.85;;;11.12;;
58756;SDS011;44527;47.460;19.016;2022-11-11T21:32:17;23.87;;;11.82;;
58756;SDS011;44527;47.460;19.016;2022-11-11T21:35:40;24.58;;;12.05;;
58756;SDS011;44527;47.460;19.016;2022-11-11T21:39:02;22.17;;;11.88;;
58756;SDS011;44527;47.460;19.016;2022-11-11T21:42:25;25.27;;;12.13;;
58756;SDS011;44527;47.460;19.016;2022-11-11T21:45:46;23.08;;;10.88;;
58756;SDS011;44527;47.460;19.016;2022-11-11T21:49:07;19.17;;;10.75;;
58756;SDS011;44527;47.460;19.016;2022-11-11T21:52:28;27.17;;;12.55;;
58756;SDS011;44527;47.460;19.016;2022-11-11T21:55:49;23.15;;;11.45;;
58756;SDS011;44527;47.460;19.016;2022-11-11T21:59:09;30.45;;;12.37;;
58756;SDS011;44527;47.460;19.016;2022-11-11T22:02:30;21.85;;;10.98;;
58756;SDS011;44527;47.460;19.016;2022-11-11T22:05:51;21.90;;;11.27;;
58756;SDS011;44527;47.460;19.016;2022-11-11T22:09:12;24.83;;;11.73;;
58756;SDS011;44527;47.460;19.016;2022-11-11T22:12:33;23.77;;;11.07;;
58756;SDS011;44527;47.460;19.016;2022-11-11T22:15:56;21.15;;;12.15;;
58756;SDS011;44527;47.460;19.016;2022-11-11T22:19:18;25.50;;;10.77;;
58756;SDS011;44527;47.460;19.016;2022-11-11T22:22:39;20.85;;;11.10;;